Time;durP1;ratioP1;P1;durP2;ratioP2;P2;SDS_P1;SDS_P2;PMS_P1;PMS_P2;Temp;Humidity;BMP_temperature;BMP_pressure;BME280_temperature;BME280_humidity;BME280_pressure;Samples;Min_cycle;Max_cycle;Signal;HPM_P1;HPM_P2
2022/04/09 00:01:31;;;;;;;;;;;;;;;4.99;70.87;98455.29;84526;1335;22569;-83
2022/04/09 00:03:42;;;;;;;;;;;;;;;4.99;71.12;98449.41;84524;1331;22578;-82
2022/04/09 00:05:50;;;;;;;;;;;;;;;4.97;70.95;98447.89;84481;1333;23930;-82
2022/04/09 00:07:57;;;;;;;;;;;;;;;4.96;71.05;98443.09;84501;1333;22652;-82
2022/04/09 00:10:09;;;;;;;;;;;;;;;4.96;71.07;98441.91;84537;1332;22604;-83
2022/04/09 00:12:20;;;;;;;;;;;;;;;4.96;71.09;98436.38;84534;1333;22594;-82
2022/04/09 00:14:27;;;;;;;;;;;;;;;4.96;71.32;98435.51;84499;1333;22742;-83
2022/04/09 00:16:38;;;;;;;;;;;;;;;4.96;71.44;98433.63;84526;1325;22600;-77
2022/04/09 00:18:48;;;;;;;;;;;;;;;4.95;71.59;98432.45;84480;1332;22719;-78
2022/04/09 00:20:56;;;;;;;;;;;;;;;4.95;71.77;98429.52;84497;1332;22868;-77
2022/04/09 00:23:10;;;;;;;;;;;;;;;4.96;71.65;98423.77;84603;1329;22581;-77
2022/04/09 00:25:24;;;;;;;;;;;;;;;4.98;71.76;98419.04;84506;1332;22634;-80
2022/04/09 00:27:31;;;;;;;;;;;;;;;4.99;71.96;98417.41;84520;1332;22659;-80
2022/04/09 00:29:41;;;;;;;;;;;;;;;5.02;71.90;98418.48;84523;1328;24355;-83
2022/04/09 00:31:50;;;;;;;;;;;;;;;5.05;72.27;98413.51;84531;1332;22586;-78
2022/04/09 00:34:04;;;;;;;;;;;;;;;5.08;72.35;98406.23;84518;1332;22621;-78
2022/04/09 00:36:12;;;;;;;;;;;;;;;5.14;72.20;98407.02;84523;1331;25410;-76
2022/04/09 00:38:20;;;;;;;;;;;;;;;5.17;72.24;98401.52;84504;1333;22623;-76
2022/04/09 00:40:28;;;;;;;;;;;;;;;5.21;72.37;98400.99;84523;1336;22765;-81
2022/04/09 00:42:35;;;;;;;;;;;;;;;5.25;72.10;98400.48;84515;1327;22594;-82
2022/04/09 00:44:44;;;;;;;;;;;;;;;5.27;72.21;98400.18;84512;1332;24064;-80
2022/04/09 00:46:51;;;;;;;;;;;;;;;5.28;72.05;98399.96;84518;1333;22565;-77
2022/04/09 00:49:02;;;;;;;;;;;;;;;5.29;72.39;98399.42;84475;1332;22682;-76
2022/04/09 00:51:12;;;;;;;;;;;;;;;5.29;72.13;98401.65;84487;1332;22619;-82
2022/04/09 00:53:20;;;;;;;;;;;;;;;5.28;72.23;98397.36;84525;1332;25318;-80
2022/04/09 00:57:58;;;;;;;;;;;;;;;5.25;72.33;98397.17;84499;1332;22646;-82
2022/04/09 01:00:09;;;;;;;;;;;;;;;5.22;72.40;98403.02;84515;1332;22582;-76
2022/04/09 01:02:17;;;;;;;;;;;;;;;5.18;72.37;98404.58;84545;1333;22595;-76
2022/04/09 01:04:24;;;;;;;;;;;;;;;5.16;72.39;98408.65;84539;1333;26478;-76
2022/04/09 01:06:31;;;;;;;;;;;;;;;5.15;72.63;98402.66;84514;1332;24627;-82
2022/04/09 01:08:38;;;;;;;;;;;;;;;5.14;72.69;98408.40;84505;1331;22560;-82
2022/04/09 01:10:52;;;;;;;;;;;;;;;5.13;72.79;98409.85;84450;1332;24147;-77
2022/04/09 01:12:59;;;;;;;;;;;;;;;5.11;72.89;98411.48;84521;1334;22573;-76
2022/04/09 01:15:07;;;;;;;;;;;;;;;5.09;73.18;98411.77;84507;1332;22857;-77
2022/04/09 01:17:15;;;;;;;;;;;;;;;5.08;73.17;98412.86;84488;1333;24023;-75
2022/04/09 01:19:23;;;;;;;;;;;;;;;5.05;73.43;98408.48;84515;1328;22587;-76
2022/04/09 01:21:34;;;;;;;;;;;;;;;5.03;73.35;98408.58;84505;1328;22608;-80
2022/04/09 01:23:41;;;;;;;;;;;;;;;5.02;73.54;98411.56;84515;1332;22586;-81
2022/04/09 01:25:48;;;;;;;;;;;;;;;5.01;73.48;98411.09;84572;1333;22562;-76
2022/04/09 01:27:59;;;;;;;;;;;;;;;4.99;73.67;98419.12;84504;1332;22865;-75
2022/04/09 01:30:07;;;;;;;;;;;;;;;4.99;73.86;98414.14;84534;1330;22598;-77
2022/04/09 01:32:14;;;;;;;;;;;;;;;4.99;73.91;98416.56;84494;1332;22592;-77
2022/04/09 01:34:21;;;;;;;;;;;;;;;4.99;74.21;98420.02;84516;1332;23950;-76
2022/04/09 01:36:31;;;;;;;;;;;;;;;4.98;74.25;98419.88;84511;1332;24277;-78
2022/04/09 01:38:42;;;;;;;;;;;;;;;4.97;74.20;98413.88;84513;1333;25417;-75
2022/04/09 01:40:54;;;;;;;;;;;;;;;4.96;74.50;98403.75;84503;1332;24141;-81
2022/04/09 01:43:02;;;;;;;;;;;;;;;4.95;74.60;98399.63;84515;1335;25276;-81
2022/04/09 01:45:10;;;;;;;;;;;;;;;4.95;74.71;98405.02;84526;1332;25356;-80
2022/04/09 01:47:21;;;;;;;;;;;;;;;4.94;74.64;98414.70;84528;1329;22561;-81
2022/04/09 01:49:28;;;;;;;;;;;;;;;4.94;75.05;98411.98;84525;1333;22567;-82
2022/04/09 01:51:39;;;;;;;;;;;;;;;4.94;74.90;98414.05;84501;1332;23021;-81
2022/04/09 01:53:50;;;;;;;;;;;;;;;4.93;75.31;98414.92;84468;1335;22601;-80
2022/04/09 01:55:59;;;;;;;;;;;;;;;4.92;75.45;98411.66;84547;1335;24235;-76
2022/04/09 01:58:07;;;;;;;;;;;;;;;4.92;75.33;98419.61;84499;1331;23945;-76
2022/04/09 02:00:17;;;;;;;;;;;;;;;4.92;75.85;98413.39;84549;1333;23922;-76
2022/04/09 02:02:28;;;;;;;;;;;;;;;4.94;75.51;98412.83;84517;1332;22835;-76
2022/04/09 02:04:36;;;;;;;;;;;;;;;4.96;75.61;98408.91;84525;1333;22806;-76
2022/04/09 02:06:44;;;;;;;;;;;;;;;4.98;75.79;98403.81;84574;1335;24290;-76
2022/04/09 02:08:54;;;;;;;;;;;;;;;5.01;75.87;98397.96;84573;1328;22583;-76
2022/04/09 02:11:01;;;;;;;;;;;;;;;5.05;75.89;98390.36;84517;1332;22566;-76
2022/04/09 02:13:14;;;;;;;;;;;;;;;5.08;75.74;98387.10;84542;1332;22604;-76
2022/04/09 02:15:22;;;;;;;;;;;;;;;5.13;75.92;98386.87;84534;1328;23173;-82
2022/04/09 02:17:29;;;;;;;;;;;;;;;5.16;76.05;98387.05;84543;1332;24191;-81
2022/04/09 02:19:39;;;;;;;;;;;;;;;5.18;76.21;98391.10;84522;1332;22583;-81
2022/04/09 02:21:46;;;;;;;;;;;;;;;5.21;75.86;98387.19;84529;1332;22613;-76
2022/04/09 02:23:53;;;;;;;;;;;;;;;5.21;76.24;98378.35;84542;1332;22600;-78
2022/04/09 02:26:00;;;;;;;;;;;;;;;5.21;76.07;98378.54;84536;1332;25369;-80
2022/04/09 02:28:11;;;;;;;;;;;;;;;5.19;75.87;98383.30;84542;1333;24001;-81
2022/04/09 02:30:18;;;;;;;;;;;;;;;5.17;76.27;98383.88;84545;1333;22576;-80
2022/04/09 02:32:28;;;;;;;;;;;;;;;5.14;76.17;98384.90;84515;1331;22933;-81
2022/04/09 02:34:35;;;;;;;;;;;;;;;5.12;75.88;98386.02;84571;1333;22569;-80
2022/04/09 02:36:42;;;;;;;;;;;;;;;5.10;76.06;98383.88;84531;1332;22584;-82
2022/04/09 02:38:50;;;;;;;;;;;;;;;5.07;76.26;98377.80;84520;1333;22680;-81
2022/04/09 02:40:57;;;;;;;;;;;;;;;5.03;76.32;98377.11;84566;1332;22655;-81
2022/04/09 02:43:04;;;;;;;;;;;;;;;5.02;76.51;98383.58;84505;1332;22583;-81
2022/04/09 02:45:12;;;;;;;;;;;;;;;5.00;76.79;98379.02;84566;1335;22605;-81
2022/04/09 02:47:19;;;;;;;;;;;;;;;4.99;76.83;98372.16;84564;1333;22634;-82
2022/04/09 02:49:26;;;;;;;;;;;;;;;4.97;76.81;98372.22;84524;1332;22590;-81
2022/04/09 02:51:38;;;;;;;;;;;;;;;4.97;76.76;98381.91;84550;1335;22771;-77
2022/04/09 02:53:45;;;;;;;;;;;;;;;4.97;77.36;98385.89;84533;1332;23041;-76
2022/04/09 02:55:55;;;;;;;;;;;;;;;4.97;77.27;98393.14;84545;1325;22570;-74
2022/04/09 02:58:02;;;;;;;;;;;;;;;4.99;77.27;98396.19;84504;1332;22567;-76
2022/04/09 03:00:12;;;;;;;;;;;;;;;5.03;77.27;98392.18;84547;1328;22562;-74
2022/04/09 03:02:20;;;;;;;;;;;;;;;5.06;77.40;98387.67;84557;1332;22577;-76
2022/04/09 03:04:27;;;;;;;;;;;;;;;5.08;77.29;98386.38;84522;1332;24245;-76
2022/04/09 03:06:38;;;;;;;;;;;;;;;5.11;77.28;98388.13;84558;1332;23089;-81
2022/04/09 03:08:46;;;;;;;;;;;;;;;5.16;77.35;98388.25;84514;1333;22560;-79
2022/04/09 03:10:53;;;;;;;;;;;;;;;5.16;77.42;98385.33;84524;1332;25545;-81
2022/04/09 03:13:00;;;;;;;;;;;;;;;5.15;77.07;98387.76;84543;1332;24018;-81
2022/04/09 03:15:09;;;;;;;;;;;;;;;5.18;77.61;98391.30;84534;1333;23960;-80
2022/04/09 03:17:19;;;;;;;;;;;;;;;5.16;77.35;98394.30;84536;1332;22596;-82
2022/04/09 03:19:29;;;;;;;;;;;;;;;5.14;77.29;98392.67;84542;1332;22575;-81
2022/04/09 03:21:40;;;;;;;;;;;;;;;5.11;77.00;98392.80;84540;1332;24254;-76
2022/04/09 03:23:47;;;;;;;;;;;;;;;5.08;77.27;98389.50;84540;1336;22559;-78
2022/04/09 03:25:54;;;;;;;;;;;;;;;5.04;77.25;98396.25;84607;1333;22603;-76
2022/04/09 03:28:02;;;;;;;;;;;;;;;5.03;77.36;98397.36;84505;1335;22603;-76
2022/04/09 03:30:11;;;;;;;;;;;;;;;5.00;77.32;98400.61;84548;1330;22833;-82
2022/04/09 03:32:18;;;;;;;;;;;;;;;4.97;77.49;98401.77;84566;1332;22567;-80
2022/04/09 03:34:26;;;;;;;;;;;;;;;4.95;77.49;98407.56;84539;1332;22565;-82
2022/04/09 03:36:33;;;;;;;;;;;;;;;4.93;77.66;98406.96;84539;1332;25426;-76
2022/04/09 03:38:44;;;;;;;;;;;;;;;4.91;77.74;98406.89;84512;1332;22604;-76
2022/04/09 03:40:52;;;;;;;;;;;;;;;4.90;77.99;98407.27;84513;1333;24306;-80
2022/04/09 03:43:02;;;;;;;;;;;;;;;4.90;78.03;98405.04;84510;1332;22951;-80
2022/04/09 03:45:13;;;;;;;;;;;;;;;4.90;78.11;98407.80;84523;1332;22576;-78
2022/04/09 03:47:24;;;;;;;;;;;;;;;4.90;77.84;98412.98;84535;1333;24095;-76
2022/04/09 03:49:33;;;;;;;;;;;;;;;4.92;78.26;98413.73;84558;1327;22585;-76
2022/04/09 03:51:40;;;;;;;;;;;;;;;4.95;78.05;98417.27;84544;1332;22574;-80
2022/04/09 03:53:48;;;;;;;;;;;;;;;4.95;78.02;98421.23;84567;1325;22715;-82
2022/04/09 03:55:55;;;;;;;;;;;;;;;4.96;78.20;98425.32;84515;1330;22566;-76
2022/04/09 03:58:06;;;;;;;;;;;;;;;5.00;78.25;98427.91;84557;1333;22574;-75
2022/04/09 04:00:18;;;;;;;;;;;;;;;5.06;78.43;98425.54;84552;1332;22579;-79
2022/04/09 04:02:26;;;;;;;;;;;;;;;5.07;78.31;98428.23;84554;1334;22596;-80
2022/04/09 04:04:37;;;;;;;;;;;;;;;5.07;78.25;98437.42;84467;1335;24431;-83
2022/04/09 04:06:44;;;;;;;;;;;;;;;5.11;78.47;98433.96;84531;1335;22860;-79
2022/04/09 04:08:56;;;;;;;;;;;;;;;5.17;78.41;98431.40;84536;1334;26509;-78
2022/04/09 04:11:03;;;;;;;;;;;;;;;5.19;78.44;98437.73;84547;1332;24229;-82
2022/04/09 04:13:13;;;;;;;;;;;;;;;5.21;78.23;98441.26;84582;1330;22831;-83
2022/04/09 04:15:23;;;;;;;;;;;;;;;5.22;78.28;98442.95;84545;1332;22760;-80
2022/04/09 04:17:39;;;;;;;;;;;;;;;5.21;78.32;98442.84;84525;1332;25267;-78
2022/04/09 04:19:47;;;;;;;;;;;;;;;5.19;78.45;98452.60;84523;1331;22585;-77
2022/04/09 04:21:56;;;;;;;;;;;;;;;5.19;78.44;98462.27;84526;1332;22817;-78
2022/04/09 04:24:04;;;;;;;;;;;;;;;5.18;78.44;98466.96;84513;1336;22595;-77
2022/04/09 04:26:14;;;;;;;;;;;;;;;5.16;78.62;98473.63;84518;1333;22657;-81
2022/04/09 04:28:21;;;;;;;;;;;;;;;5.16;78.80;98474.65;84507;1336;22826;-82
2022/04/09 04:30:28;;;;;;;;;;;;;;;5.16;78.63;98476.76;84545;1336;22604;-81
2022/04/09 04:32:36;;;;;;;;;;;;;;;5.12;78.86;98481.07;84513;1332;23064;-79
2022/04/09 04:34:44;;;;;;;;;;;;;;;5.09;79.01;98487.97;84511;1336;22583;-79
2022/04/09 04:36:54;;;;;;;;;;;;;;;5.06;79.17;98489.30;84553;1336;22958;-79
2022/04/09 04:39:01;;;;;;;;;;;;;;;5.02;79.06;98484.31;84492;1336;24103;-78
2022/04/09 04:41:12;;;;;;;;;;;;;;;4.99;79.32;98485.34;83948;1332;898966;-80
2022/04/09 04:43:22;;;;;;;;;;;;;;;4.97;79.52;98489.71;84434;1334;24505;-80
2022/04/09 04:45:29;;;;;;;;;;;;;;;4.97;79.62;98493.02;84564;1333;22579;-80
2022/04/09 04:47:46;;;;;;;;;;;;;;;4.96;79.73;98493.56;84504;1332;22563;-78
2022/04/09 04:49:56;;;;;;;;;;;;;;;4.96;79.60;98493.23;84543;1330;25542;-80
2022/04/09 04:52:06;;;;;;;;;;;;;;;4.95;79.71;98495.52;84501;1333;24050;-80
2022/04/09 04:54:13;;;;;;;;;;;;;;;4.94;79.68;98496.10;84509;1332;22622;-80
2022/04/09 04:56:24;;;;;;;;;;;;;;;4.92;79.74;98500.14;83804;1332;1003943;-81
2022/04/09 04:58:32;;;;;;;;;;;;;;;4.89;79.51;98495.77;84536;1331;22596;-81
2022/04/09 05:00:42;;;;;;;;;;;;;;;4.86;79.73;98489.86;84532;1332;24269;-82
2022/04/09 05:02:53;;;;;;;;;;;;;;;4.83;79.54;98492.44;84509;1334;22598;-81
2022/04/09 05:05:01;;;;;;;;;;;;;;;4.82;79.68;98493.15;84511;1334;24375;-79
2022/04/09 05:07:08;;;;;;;;;;;;;;;4.82;79.42;98491.27;84537;1331;22593;-80
2022/04/09 05:09:16;;;;;;;;;;;;;;;4.81;79.46;98498.40;84514;1332;26594;-80
2022/04/09 05:11:23;;;;;;;;;;;;;;;4.80;79.71;98510.02;84549;1331;24026;-80
2022/04/09 05:13:34;;;;;;;;;;;;;;;4.81;79.76;98515.16;84529;1330;25528;-81
2022/04/09 05:15:41;;;;;;;;;;;;;;;4.83;79.86;98519.38;84525;1332;22720;-81
2022/04/09 05:17:51;;;;;;;;;;;;;;;4.86;80.19;98520.62;84545;1332;22612;-80
2022/04/09 05:19:59;;;;;;;;;;;;;;;4.90;80.26;98526.50;84500;1331;25258;-78
2022/04/09 05:22:07;;;;;;;;;;;;;;;4.97;80.22;98536.41;84527;1333;22716;-75
2022/04/09 05:24:18;;;;;;;;;;;;;;;5.04;80.42;98536.77;84527;1332;22779;-76
2022/04/09 05:26:25;;;;;;;;;;;;;;;5.11;80.48;98536.12;84514;1332;22563;-78
2022/04/09 05:28:33;;;;;;;;;;;;;;;5.16;80.04;98532.60;84506;1332;22717;-78
2022/04/09 05:30:46;;;;;;;;;;;;;;;5.21;80.12;98525.45;84518;1332;25257;-76
2022/04/09 05:32:56;;;;;;;;;;;;;;;5.29;80.03;98523.89;84514;1330;22577;-76
2022/04/09 05:35:03;;;;;;;;;;;;;;;5.34;80.09;98518.11;84536;1332;22643;-77
2022/04/09 05:37:14;;;;;;;;;;;;;;;5.37;79.89;98514.70;84580;1328;22571;-75
2022/04/09 05:39:25;;;;;;;;;;;;;;;5.39;79.68;98516.98;84514;1333;25438;-76
2022/04/09 05:41:36;;;;;;;;;;;;;;;5.38;79.53;98514.84;84554;1333;22637;-79
2022/04/09 05:43:43;;;;;;;;;;;;;;;5.34;79.48;98515.69;84523;1336;22578;-79
2022/04/09 05:45:57;;;;;;;;;;;;;;;5.32;79.67;98520.45;84539;1329;23042;-78
2022/04/09 05:48:05;;;;;;;;;;;;;;;5.29;80.00;98521.13;84514;1336;22581;-79
2022/04/09 05:50:12;;;;;;;;;;;;;;;5.27;79.87;98522.92;84494;1332;22599;-76
2022/04/09 05:52:19;;;;;;;;;;;;;;;5.27;79.83;98522.23;84514;1332;23892;-79
2022/04/09 05:54:27;;;;;;;;;;;;;;;5.28;80.02;98530.67;83832;1332;1003004;-76
2022/04/09 05:56:39;;;;;;;;;;;;;;;5.30;79.88;98527.95;84505;1332;26577;-81
2022/04/09 05:58:50;;;;;;;;;;;;;;;5.32;79.69;98529.98;84512;1335;23953;-74
2022/04/09 06:01:01;;;;;;;;;;;;;;;5.34;80.10;98523.11;84519;1332;24071;-79
2022/04/09 06:03:10;;;;;;;;;;;;;;;5.36;80.51;98522.66;84587;1332;22556;-80
2022/04/09 06:05:21;;;;;;;;;;;;;;;5.37;80.13;98526.95;84517;1331;22582;-79
2022/04/09 06:07:32;;;;;;;;;;;;;;;5.38;80.37;98538.48;84578;1332;22657;-81
2022/04/09 06:09:42;;;;;;;;;;;;;;;5.41;80.24;98542.50;84515;1335;24902;-80
2022/04/09 06:11:49;;;;;;;;;;;;;;;5.44;80.45;98543.21;84530;1332;25025;-79
2022/04/09 06:13:57;;;;;;;;;;;;;;;5.46;80.38;98540.55;84563;1333;25409;-80
2022/04/09 06:16:08;;;;;;;;;;;;;;;5.46;80.32;98545.73;84434;1334;22569;-76
2022/04/09 06:18:15;;;;;;;;;;;;;;;5.46;80.24;98555.24;84504;1333;22575;-77
2022/04/09 06:20:23;;;;;;;;;;;;;;;5.47;80.33;98556.60;84511;1331;22590;-76
2022/04/09 06:22:30;;;;;;;;;;;;;;;5.51;80.63;98562.63;84507;1332;22604;-76
2022/04/09 06:24:41;;;;;;;;;;;;;;;5.54;80.63;98561.08;84482;1332;22588;-76
2022/04/09 06:26:48;;;;;;;;;;;;;;;5.60;80.89;98560.30;84535;1332;25256;-74
2022/04/09 06:28:55;;;;;;;;;;;;;;;5.65;80.74;98563.17;84506;1330;22589;-76
2022/04/09 06:31:03;;;;;;;;;;;;;;;5.71;80.54;98564.30;84549;1332;22569;-79
2022/04/09 06:33:13;;;;;;;;;;;;;;;5.74;80.39;98561.20;84495;1332;26624;-79
2022/04/09 06:35:25;;;;;;;;;;;;;;;5.79;80.25;98563.58;84509;1336;22583;-79
2022/04/09 06:37:35;;;;;;;;;;;;;;;5.85;80.13;98561.56;84564;1332;22581;-80
2022/04/09 06:39:51;;;;;;;;;;;;;;;5.92;80.32;98563.13;84549;1331;25424;-77
2022/04/09 06:42:06;;;;;;;;;;;;;;;6.02;80.03;98564.23;84531;1332;23940;-76
2022/04/09 06:44:19;;;;;;;;;;;;;;;6.12;80.37;98568.38;84475;1336;22562;-74
2022/04/09 06:46:30;;;;;;;;;;;;;;;6.30;80.24;98562.85;84547;1328;23043;-79
2022/04/09 06:48:41;;;;;;;;;;;;;;;6.47;80.21;98567.88;84494;1333;22684;-80
2022/04/09 06:50:52;;;;;;;;;;;;;;;6.65;80.13;98565.09;84517;1332;22593;-79
2022/04/09 06:53:04;;;;;;;;;;;;;;;6.81;79.61;98569.48;84522;1332;25595;-77
2022/04/09 06:55:11;;;;;;;;;;;;;;;6.94;79.36;98571.70;84542;1332;22657;-75
2022/04/09 06:57:18;;;;;;;;;;;;;;;7.07;79.27;98569.81;84490;1333;22575;-77
2022/04/09 06:59:28;;;;;;;;;;;;;;;7.19;78.95;98568.84;84523;1332;22606;-76
2022/04/09 07:01:39;;;;;;;;;;;;;;;7.29;78.44;98569.55;84471;1330;22573;-76
2022/04/09 07:03:46;;;;;;;;;;;;;;;7.35;78.14;98573.71;84521;1335;24016;-77
2022/04/09 07:05:54;;;;;;;;;;;;;;;7.42;77.86;98574.73;84544;1332;22569;-74
2022/04/09 07:08:03;;;;;;;;;;;;;;;7.46;77.71;98579.54;84517;1331;22659;-73
2022/04/09 07:10:12;;;;;;;;;;;;;;;7.50;77.52;98581.25;84521;1336;22556;-79
2022/04/09 07:12:22;;;;;;;;;;;;;;;7.52;77.14;98587.02;84545;1332;22594;-83
2022/04/09 07:14:34;;;;;;;;;;;;;;;7.54;76.99;98594.40;84501;1332;22722;-75
2022/04/09 07:16:47;;;;;;;;;;;;;;;7.55;76.20;98600.08;84543;1332;22606;-79
2022/04/09 07:18:55;;;;;;;;;;;;;;;7.50;76.38;98609.35;84533;1332;26337;-75
2022/04/09 07:21:03;;;;;;;;;;;;;;;7.53;76.68;98622.93;84531;1332;23940;-78
2022/04/09 07:23:14;;;;;;;;;;;;;;;7.58;76.94;98628.36;84521;1336;22640;-77
2022/04/09 07:25:24;;;;;;;;;;;;;;;7.64;76.81;98635.16;84521;1332;22577;-75
2022/04/09 07:27:41;;;;;;;;;;;;;;;7.68;76.71;98644.49;84509;1332;24351;-75
2022/04/09 07:29:48;;;;;;;;;;;;;;;7.71;76.56;98645.33;84529;1333;22671;-76
2022/04/09 07:32:00;;;;;;;;;;;;;;;7.78;76.45;98650.00;84504;1336;25487;-75
2022/04/09 07:34:07;;;;;;;;;;;;;;;7.85;76.11;98655.73;84522;1332;22593;-74
2022/04/09 07:36:15;;;;;;;;;;;;;;;7.91;75.78;98657.27;84518;1332;22720;-75
2022/04/09 07:38:22;;;;;;;;;;;;;;;8.01;75.83;98664.02;84506;1333;22563;-76
2022/04/09 07:40:33;;;;;;;;;;;;;;;8.15;75.89;98667.45;84490;1333;23002;-76
2022/04/09 07:42:41;;;;;;;;;;;;;;;8.26;75.49;98668.20;84511;1332;22564;-73
2022/04/09 07:44:54;;;;;;;;;;;;;;;8.37;75.18;98669.36;84526;1332;25415;-75
2022/04/09 07:47:05;;;;;;;;;;;;;;;8.52;75.18;98669.94;84517;1331;22634;-75
2022/04/09 07:49:16;;;;;;;;;;;;;;;8.65;74.81;98668.98;84513;1334;24356;-76
2022/04/09 07:51:24;;;;;;;;;;;;;;;8.77;74.25;98678.23;84494;1336;25909;-76
2022/04/09 07:53:35;;;;;;;;;;;;;;;8.88;73.84;98683.52;84505;1334;23950;-75
2022/04/09 07:55:42;;;;;;;;;;;;;;;8.96;73.09;98687.73;84543;1332;24258;-74
2022/04/09 07:57:51;;;;;;;;;;;;;;;9.01;71.81;98694.92;84504;1335;22695;-74
2022/04/09 08:00:02;;;;;;;;;;;;;;;8.98;71.69;98699.27;84542;1334;22679;-75
2022/04/09 08:02:11;;;;;;;;;;;;;;;9.03;71.85;98705.58;84542;1336;22632;-75
2022/04/09 08:04:20;;;;;;;;;;;;;;;9.12;71.66;98709.41;84479;1333;22679;-74
2022/04/09 08:06:32;;;;;;;;;;;;;;;9.15;71.07;98713.20;84582;1332;24255;-79
2022/04/09 08:08:40;;;;;;;;;;;;;;;9.20;71.28;98717.64;84509;1331;22834;-80
2022/04/09 08:10:51;;;;;;;;;;;;;;;9.27;71.20;98721.55;84534;1333;22981;-74
2022/04/09 08:12:59;;;;;;;;;;;;;;;9.34;70.50;98728.12;84502;1332;24246;-75
2022/04/09 08:15:09;;;;;;;;;;;;;;;9.37;69.51;98733.33;84553;1332;23356;-79
2022/04/09 08:17:20;;;;;;;;;;;;;;;9.39;69.14;98742.46;84533;1333;22566;-80
2022/04/09 08:19:29;;;;;;;;;;;;;;;9.41;68.57;98747.73;84527;1332;22563;-78
2022/04/09 08:21:37;;;;;;;;;;;;;;;9.48;68.93;98755.13;84503;1332;24953;-79
2022/04/09 08:23:44;;;;;;;;;;;;;;;9.55;67.84;98758.54;84517;1332;24089;-78
2022/04/09 08:25:52;;;;;;;;;;;;;;;9.55;67.65;98760.45;84538;1333;22592;-77
2022/04/09 08:28:03;;;;;;;;;;;;;;;9.57;67.55;98757.73;84482;1333;22565;-77
2022/04/09 08:30:14;;;;;;;;;;;;;;;9.60;67.00;98758.26;84524;1331;22579;-78
2022/04/09 08:32:22;;;;;;;;;;;;;;;9.59;67.08;98764.05;84520;1336;22571;-79
2022/04/09 08:34:31;;;;;;;;;;;;;;;9.65;67.17;98764.93;84531;1330;22927;-75
2022/04/09 08:36:38;;;;;;;;;;;;;;;9.70;67.19;98769.98;84493;1334;23922;-78
2022/04/09 08:38:48;;;;;;;;;;;;;;;9.77;66.73;98774.95;84506;1332;22578;-80
2022/04/09 08:40:56;;;;;;;;;;;;;;;9.77;65.84;98781.60;84509;1333;24065;-72
2022/04/09 08:43:09;;;;;;;;;;;;;;;9.74;66.03;98784.52;84577;1332;22561;-74
2022/04/09 08:45:17;;;;;;;;;;;;;;;9.77;65.82;98791.55;84533;1333;22590;-82
2022/04/09 08:47:28;;;;;;;;;;;;;;;9.76;65.38;98795.77;84503;1332;23902;-79
2022/04/09 08:49:40;;;;;;;;;;;;;;;9.70;65.24;98797.84;84517;1333;22577;-79
2022/04/09 08:51:47;;;;;;;;;;;;;;;9.67;65.06;98798.73;84495;1332;22589;-76
2022/04/09 08:53:57;;;;;;;;;;;;;;;9.69;65.11;98797.20;84528;1336;23900;-74
2022/04/09 08:56:06;;;;;;;;;;;;;;;9.76;65.23;98795.41;84545;1334;22575;-77
2022/04/09 08:58:13;;;;;;;;;;;;;;;9.86;64.70;98797.42;84501;1330;22579;-74
2022/04/09 09:00:21;;;;;;;;;;;;;;;9.93;65.11;98798.55;84517;1333;22706;-75
2022/04/09 09:02:31;;;;;;;;;;;;;;;10.03;65.10;98792.58;84503;1333;22691;-73
2022/04/09 09:04:42;;;;;;;;;;;;;;;10.18;65.11;98794.48;84484;1334;25419;-74
2022/04/09 09:06:52;;;;;;;;;;;;;;;10.43;65.19;98796.73;84520;1336;22720;-74
2022/04/09 09:09:04;;;;;;;;;;;;;;;10.77;64.46;98795.97;84504;1332;22598;-75
2022/04/09 09:11:19;;;;;;;;;;;;;;;10.99;64.33;98790.73;84513;1336;22577;-73
2022/04/09 09:13:30;;;;;;;;;;;;;;;11.24;64.29;98791.86;84495;1335;22618;-74
2022/04/09 09:15:53;;;;;;;;;;;;;;;11.49;63.12;98788.66;84527;1336;22723;-78
2022/04/09 09:18:00;;;;;;;;;;;;;;;11.75;61.50;98790.58;84492;1336;25451;-78
2022/04/09 09:20:14;;;;;;;;;;;;;;;11.93;61.46;98795.10;84517;1336;22574;-75
2022/04/09 09:22:22;;;;;;;;;;;;;;;12.12;60.74;98795.55;84515;1332;22587;-72
2022/04/09 09:24:31;;;;;;;;;;;;;;;12.22;59.33;98810.58;84522;1336;22597;-75
2022/04/09 09:26:39;;;;;;;;;;;;;;;12.33;58.58;98818.54;84522;1334;22583;-73
2022/04/09 09:28:47;;;;;;;;;;;;;;;12.50;58.18;98826.15;84504;1325;22577;-74
2022/04/09 09:30:58;;;;;;;;;;;;;;;12.66;57.46;98833.07;84506;1336;22571;-73
2022/04/09 09:33:10;;;;;;;;;;;;;;;12.83;57.58;98835.15;84486;1336;23888;-73
2022/04/09 09:35:21;;;;;;;;;;;;;;;13.05;56.86;98827.23;84530;1335;22583;-72
2022/04/09 09:37:30;;;;;;;;;;;;;;;13.22;55.74;98824.83;84544;1334;23007;-74
2022/04/09 09:39:44;;;;;;;;;;;;;;;13.56;55.90;98822.29;84499;1334;22632;-74
2022/04/09 09:41:54;;;;;;;;;;;;;;;14.00;54.52;98824.90;84524;1336;22567;-73
2022/04/09 09:44:06;;;;;;;;;;;;;;;14.12;52.55;98823.95;84501;1331;22613;-75
2022/04/09 09:46:13;;;;;;;;;;;;;;;14.02;51.51;98831.28;84530;1333;22561;-81
2022/04/09 09:48:29;;;;;;;;;;;;;;;13.76;50.42;98834.97;84600;1333;22626;-80
2022/04/09 09:50:46;;;;;;;;;;;;;;;13.48;50.62;98843.72;84442;1335;22570;-74
2022/04/09 09:53:06;;;;;;;;;;;;;;;13.15;49.59;98848.05;84496;1332;22804;-72
2022/04/09 09:55:16;;;;;;;;;;;;;;;12.86;50.13;98853.68;84540;1335;22568;-80
2022/04/09 09:57:25;;;;;;;;;;;;;;;12.86;51.37;98855.38;84518;1332;22580;-78
2022/04/09 09:59:44;;;;;;;;;;;;;;;13.13;51.94;98856.23;84492;1336;23934;-78
2022/04/09 10:01:55;;;;;;;;;;;;;;;13.30;51.44;98862.40;84539;1334;22681;-81
2022/04/09 10:04:07;;;;;;;;;;;;;;;13.24;49.71;98872.12;84777;1318;22566;-81
2022/04/09 10:06:15;;;;;;;;;;;;;;;13.04;49.79;98879.32;84779;1329;22583;-75
2022/04/09 10:08:25;;;;;;;;;;;;;;;12.82;49.24;98877.36;84810;1326;22544;-75
2022/04/09 10:10:43;;;;;;;;;;;;;;;12.59;48.90;98889.90;84802;1326;22678;-75
2022/04/09 10:12:51;;;;;;;;;;;;;;;12.31;48.44;98888.30;84785;1326;22570;-75
2022/04/09 10:15:02;;;;;;;;;;;;;;;12.02;48.33;98897.62;84629;1333;22560;-73
2022/04/09 10:17:12;;;;;;;;;;;;;;;11.87;49.12;98900.89;84798;1330;22563;-74
2022/04/09 10:19:25;;;;;;;;;;;;;;;11.80;48.93;98905.52;84769;1329;23051;-83
2022/04/09 10:21:42;;;;;;;;;;;;;;;11.79;49.51;98907.53;84777;1330;22562;-80
2022/04/09 10:23:52;;;;;;;;;;;;;;;11.92;50.19;98911.92;84827;1327;23131;-80
2022/04/09 10:26:00;;;;;;;;;;;;;;;12.13;50.01;98911.39;84783;1326;22566;-72
2022/04/09 10:28:12;;;;;;;;;;;;;;;12.19;49.33;98915.57;84785;1329;22673;-80
2022/04/09 10:30:24;;;;;;;;;;;;;;;12.13;49.42;98923.75;84664;1330;22570;-72
2022/04/09 10:32:45;;;;;;;;;;;;;;;12.06;48.80;98919.90;84672;1330;22862;-74
2022/04/09 10:34:55;;;;;;;;;;;;;;;11.92;48.47;98909.86;84786;1326;22566;-73
2022/04/09 10:37:05;;;;;;;;;;;;;;;11.84;48.83;98913.65;84789;1327;22910;-74
2022/04/09 10:39:26;;;;;;;;;;;;;;;11.90;49.07;98921.33;84793;1326;25356;-74
2022/04/09 10:41:36;;;;;;;;;;;;;;;11.99;48.43;98924.20;84777;1330;22567;-73
2022/04/09 10:43:44;;;;;;;;;;;;;;;12.17;48.94;98931.90;84801;1327;22576;-73
2022/04/09 10:46:20;;;;;;;;;;;;;;;12.40;48.57;98931.05;84797;1326;22583;-72
2022/04/09 10:48:31;;;;;;;;;;;;;;;12.65;48.45;98934.25;84821;1325;22602;-74
2022/04/09 10:51:01;;;;;;;;;;;;;;;12.77;47.93;98939.17;84787;1326;22633;-76
2022/04/09 10:53:11;;;;;;;;;;;;;;;12.95;48.18;98939.15;84805;1326;22583;-79
2022/04/09 10:55:31;;;;;;;;;;;;;;;13.15;47.91;98939.46;84800;1326;22571;-80
2022/04/09 10:57:45;;;;;;;;;;;;;;;13.32;46.59;98947.04;84791;1330;22589;-81
2022/04/09 11:00:00;;;;;;;;;;;;;;;13.42;45.75;98950.83;84813;1330;22569;-78
2022/04/09 11:02:10;;;;;;;;;;;;;;;13.38;45.05;98951.81;84804;1329;23858;-80
2022/04/09 11:04:45;;;;;;;;;;;;;;;13.36;44.83;98954.80;84676;1329;22596;-75
2022/04/09 11:07:03;;;;;;;;;;;;;;;13.22;43.87;98954.34;84703;1331;22557;-77
2022/04/09 11:09:10;;;;;;;;;;;;;;;13.01;43.87;98944.52;84682;1329;22572;-82
2022/04/09 11:11:28;;;;;;;;;;;;;;;12.87;43.59;98954.01;84677;1331;22644;-80
2022/04/09 11:13:39;;;;;;;;;;;;;;;12.71;43.25;98961.29;84688;1331;22713;-80
2022/04/09 11:15:48;;;;;;;;;;;;;;;12.61;43.15;98965.64;84697;1329;22992;-81
2022/04/09 11:18:02;;;;;;;;;;;;;;;12.45;43.89;98971.67;84662;1325;24501;-80
2022/04/09 11:20:17;;;;;;;;;;;;;;;12.36;44.40;98983.81;84667;1329;23896;-80
2022/04/09 11:22:36;;;;;;;;;;;;;;;12.25;44.27;98986.48;84683;1327;22582;-79
2022/04/09 11:24:44;;;;;;;;;;;;;;;12.11;44.01;98987.19;84684;1331;25247;-82
2022/04/09 11:26:59;;;;;;;;;;;;;;;12.07;44.62;98983.08;84624;1330;22578;-81